Архив погоды в Донецке за Апрель, 2019 год

icon
Год:Все200220032004200520062007200820092010201120122013201420152016201720182019
Месяц:ЯнварьФевральМартАпрельМайИюньДекабрь
Дата Облачность Температура (д/н), °C Давление, мм Влажность, % Ветер, м/с
01.04.2019 Облачность ясно +18 / +6 735 21 С-В, 3
02.04.2019 Облачность пасмурно +6 / +2 739 48 С, 5
03.04.2019 Облачность дождь +2 / -1 739 92 С, 2
04.04.2019 Облачность ясно +9 / +0 740 30 З, 4
05.04.2019 Облачность ясно +13 / +1 741 23 Ю-З, 4
06.04.2019 Облачность пасмурно +15 / +5 740 34 В, 5
07.04.2019 Облачность ясно +17 / +5 739 30 В, 5
08.04.2019 Облачность ясно +16 / +8 736 45 В, 6
09.04.2019 Облачность ясно +19 / +8 733 43 Ю-В, 5
10.04.2019 Облачность ясно +23 / +10 550 31 С, 5
11.04.2019 Облачность ясно +17 / +8 735 57 Ю-В, 2
12.04.2019 Облачность пасмурно +16 / +8 735 62 Ю, 5
13.04.2019 Облачность пасмурно +15 / +6 736 70 Ю-З, 6
14.04.2019 Облачность пасмурно +10 / +9 736 94 Ю-В, 2
15.04.2019 Облачность пасмурно +11 / +6 734 85 Ю, 6
16.04.2019 Облачность пасмурно +11 / +9 737 73 Ю-В, 2
17.04.2019 Облачность дождь +7 / +3 740 87 В, 7
18.04.2019 Облачность ясно +9 / +2 744 26 В, 6
19.04.2019 Облачность ясно +9 / +1 743 27 В, 7
20.04.2019 Облачность ясно +13 / +1 744 22 В, 6
21.04.2019 Облачность ясно +14 / +3 743 18 В, 5
22.04.2019 Облачность пасмурно +15 / +3 744 19 В, 4
23.04.2019 Облачность ясно +18 / +6 747 18 Ю, 1
24.04.2019 Облачность ясно +21 / +8 746 20 С, 4
25.04.2019 Облачность ясно +24 / +13 745 22 В, 1
26.04.2019 Облачность пасмурно +23 / +13 741 27 В, 1
27.04.2019 Облачность пасмурно +22 / +11 738 28 В, 1
28.04.2019 Облачность пасмурно +21 / +11 734 31 З, 2
29.04.2019 Облачность пасмурно +19 / +9 736 33 З, 4
30.04.2019 Облачность ясно +18 / +10 735 57 Ю, 4
icon
Облачность:пасмурно пасмурно
Темп. днем:-4..-2 °C
Темп. ночью:-8..-6 °C
Давление:743 мм
Влажность:85 %
Ветер:С, 1 м/с
icon
USDusd25,64(-0,17223)
RUBrub0,41(-0,00346)
EUReur28,76(-0,22156)
icon
Вт. 23 Июль 2019
icon
Логин:
Код: ---
 
Реклама
icon